createdAt,value
2022-09-05T00:01:27.944Z,15.00
2022-09-05T00:04:25.302Z,15.00
2022-09-05T00:07:05.867Z,15.00
2022-09-05T00:09:51.591Z,14.90
2022-09-05T00:12:18.840Z,14.90
2022-09-05T00:15:18.288Z,14.80
2022-09-05T00:20:57.217Z,14.80
2022-09-05T00:24:31.664Z,14.70
2022-09-05T00:24:50.221Z,14.70
2022-09-05T00:27:46.867Z,14.80
2022-09-05T00:31:07.635Z,14.80
2022-09-05T00:33:16.745Z,14.80
2022-09-05T00:36:15.932Z,14.70
2022-09-05T00:38:43.258Z,14.70
2022-09-05T00:41:13.712Z,14.70
2022-09-05T00:43:46.078Z,14.60
2022-09-05T00:46:24.546Z,14.60
2022-09-05T00:49:06.872Z,14.70
2022-09-05T00:51:58.353Z,14.70
2022-09-05T00:54:55.643Z,14.60
2022-09-05T00:58:03.147Z,14.60
2022-09-05T01:00:33.464Z,14.60
2022-09-05T01:03:31.779Z,14.60
2022-09-05T01:06:09.506Z,14.70
2022-09-05T01:08:54.895Z,14.70
2022-09-05T01:11:44.011Z,14.60
2022-09-05T01:14:35.242Z,14.50
2022-09-05T01:17:11.225Z,14.50
2022-09-05T01:20:04.813Z,14.40
2022-09-05T01:23:08.808Z,14.30
2022-09-05T01:25:52.482Z,14.30
2022-09-05T01:29:16.104Z,14.20
2022-09-05T01:31:24.079Z,14.20
2022-09-05T01:34:00.922Z,14.30
2022-09-05T01:36:46.071Z,14.30
2022-09-05T01:40:12.528Z,14.20
2022-09-05T01:42:34.622Z,14.20
2022-09-05T01:45:03.336Z,14.10
2022-09-05T01:47:50.599Z,14.20
2022-09-05T01:50:48.410Z,14.30
2022-09-05T01:53:27.588Z,14.30
2022-09-05T01:56:24.945Z,14.30
2022-09-05T01:59:16.465Z,14.30
2022-09-05T02:02:01.944Z,14.20
2022-09-05T02:05:01.182Z,14.00
2022-09-05T02:07:44.870Z,13.90
2022-09-05T02:10:18.850Z,14.00
2022-09-05T02:12:58.421Z,14.00
2022-09-05T02:15:59.861Z,13.90
2022-09-05T02:19:06.374Z,13.90
2022-09-05T02:21:42.250Z,13.90
2022-09-05T02:24:23.793Z,13.90
2022-09-05T02:27:05.983Z,13.80
2022-09-05T02:29:39.995Z,13.80
2022-09-05T02:32:32.150Z,13.90
2022-09-05T02:35:13.894Z,13.90
2022-09-05T02:39:09.140Z,13.80
2022-09-05T02:45:16.343Z,13.70
2022-09-05T02:45:20.773Z,13.70
2022-09-05T02:46:48.280Z,13.50
2022-09-05T02:52:16.791Z,13.50
2022-09-05T02:57:24.897Z,13.50
2022-09-05T02:57:38.338Z,13.60
2022-09-05T02:58:09.000Z,13.60
2022-09-05T03:00:44.773Z,13.60
2022-09-05T03:03:50.054Z,13.60
2022-09-05T03:06:26.021Z,13.60
2022-09-05T03:09:17.183Z,13.60
2022-09-05T03:11:53.682Z,13.70
2022-09-05T03:14:42.461Z,13.60
2022-09-05T03:17:09.742Z,13.40
2022-09-05T03:19:54.451Z,13.30
2022-09-05T03:22:28.838Z,13.30
2022-09-05T03:25:11.359Z,13.30
2022-09-05T03:28:16.087Z,13.20
2022-09-05T03:31:01.572Z,13.10
2022-09-05T03:33:52.203Z,13.20
2022-09-05T03:36:40.139Z,13.20
2022-09-05T03:39:19.063Z,13.30
2022-09-05T03:42:14.781Z,13.30
2022-09-05T03:44:48.538Z,13.40
2022-09-05T03:47:39.282Z,13.40
2022-09-05T03:57:06.951Z,13.40
2022-09-05T03:57:15.450Z,13.20
2022-09-05T03:57:18.759Z,13.30
2022-09-05T04:00:02.513Z,13.20
2022-09-05T04:07:45.754Z,13.20
2022-09-05T04:08:26.623Z,13.10
2022-09-05T04:08:34.295Z,13.10
2022-09-05T04:11:07.909Z,13.10
2022-09-05T04:13:51.546Z,12.90
2022-09-05T04:16:30.623Z,12.90
2022-09-05T04:19:36.494Z,12.80
2022-09-05T04:22:24.975Z,12.80
2022-09-05T04:25:07.260Z,12.80
2022-09-05T04:27:57.135Z,12.80
2022-09-05T04:30:43.092Z,12.90
2022-09-05T04:33:35.867Z,12.90
2022-09-05T04:36:21.068Z,13.00
2022-09-05T04:39:24.111Z,12.90
2022-09-05T04:42:09.921Z,13.00
2022-09-05T04:44:55.867Z,12.90
2022-09-05T04:47:28.226Z,12.80
2022-09-05T04:49:59.275Z,12.80
2022-09-05T04:52:45.067Z,12.80
2022-09-05T04:55:14.485Z,12.80
2022-09-05T04:58:21.429Z,12.90
2022-09-05T05:05:59.811Z,12.90
2022-09-05T05:06:04.445Z,12.90
2022-09-05T05:06:46.666Z,13.00
2022-09-05T05:09:19.175Z,13.10
2022-09-05T05:17:54.384Z,13.00
2022-09-05T05:18:10.548Z,13.10
2022-09-05T05:18:12.193Z,13.00
2022-09-05T05:20:48.290Z,13.20
2022-09-05T05:23:17.266Z,13.30
2022-09-05T05:25:52.175Z,13.30
2022-09-05T05:28:24.975Z,13.20
2022-09-05T05:30:59.843Z,13.30
2022-09-05T05:33:34.070Z,13.50
2022-09-05T05:36:02.455Z,13.50
2022-09-05T05:38:48.462Z,13.60
2022-09-05T05:41:29.363Z,13.70
2022-09-05T05:43:57.626Z,13.80
2022-09-05T05:46:36.159Z,14.00
2022-09-05T05:49:24.817Z,14.20
2022-09-05T05:52:01.476Z,14.20
2022-09-05T05:54:35.626Z,14.30
2022-09-05T05:57:22.405Z,14.40
2022-09-05T06:00:27.673Z,14.60
2022-09-05T06:03:25.554Z,14.80
2022-09-05T06:06:28.847Z,14.90
2022-09-05T06:14:48.124Z,15.10
2022-09-05T06:15:03.578Z,15.20
2022-09-05T06:15:30.212Z,15.40
2022-09-05T06:18:07.546Z,15.50
2022-09-05T06:22:04.146Z,15.60
2022-09-05T06:24:21.439Z,15.80
2022-09-05T06:27:03.808Z,15.90
2022-09-05T06:29:38.265Z,16.10
2022-09-05T06:32:24.251Z,16.20
2022-09-05T06:35:24.042Z,16.40
2022-09-05T06:38:19.507Z,16.50
2022-09-05T06:40:58.702Z,16.60
2022-09-05T06:44:04.542Z,16.80
2022-09-05T06:46:54.621Z,17.10
2022-09-05T06:49:45.908Z,17.20
2022-09-05T06:52:29.720Z,17.40
2022-09-05T06:55:30.480Z,17.50
2022-09-05T06:58:35.102Z,17.60
2022-09-05T07:01:02.445Z,17.70
2022-09-05T07:04:33.242Z,17.80
2022-09-05T07:07:06.449Z,17.90
2022-09-05T07:09:53.079Z,18.00
2022-09-05T07:12:41.000Z,18.10
2022-09-05T07:15:42.135Z,18.20
2022-09-05T07:18:22.120Z,18.20
2022-09-05T07:21:16.521Z,18.30
2022-09-05T07:24:09.215Z,18.40
2022-09-05T07:26:53.431Z,18.50
2022-09-05T07:29:52.433Z,18.60
2022-09-05T07:32:35.963Z,18.80
2022-09-05T07:35:03.543Z,19.00
2022-09-05T07:37:38.394Z,19.10
2022-09-05T07:40:25.167Z,19.20
2022-09-05T07:43:10.538Z,19.20
2022-09-05T07:45:52.173Z,19.30
2022-09-05T07:48:35.067Z,19.50
2022-09-05T07:55:07.981Z,19.60
2022-09-05T07:56:52.456Z,19.60
2022-09-05T07:57:02.495Z,19.60
2022-09-05T07:59:26.368Z,19.60
2022-09-05T08:01:53.827Z,19.80
2022-09-05T08:04:24.220Z,19.60
2022-09-05T08:07:49.322Z,19.60
2022-09-05T08:10:05.423Z,19.80
2022-09-05T08:13:23.661Z,19.90
2022-09-05T08:16:15.256Z,20.00
2022-09-05T08:18:47.639Z,20.10
2022-09-05T08:21:28.053Z,20.20
2022-09-05T08:24:21.019Z,20.20
2022-09-05T08:26:51.178Z,20.30
2022-09-05T08:29:37.886Z,20.40
2022-09-05T08:32:08.792Z,20.40
2022-09-05T08:34:45.884Z,20.60
2022-09-05T08:37:21.672Z,20.80
2022-09-05T08:40:10.120Z,21.00
2022-09-05T08:43:38.081Z,21.20
2022-09-05T08:46:41.810Z,21.20
2022-09-05T08:49:36.463Z,21.30
2022-09-05T08:52:08.450Z,21.30
2022-09-05T08:55:00.064Z,21.40
2022-09-05T08:57:50.750Z,21.50
2022-09-05T09:00:20.839Z,21.90
2022-09-05T09:03:03.926Z,22.00
2022-09-05T09:06:12.210Z,22.00
2022-09-05T09:09:05.851Z,22.30
2022-09-05T09:11:42.402Z,22.40
2022-09-05T09:14:32.310Z,22.40
2022-09-05T09:17:20.719Z,22.50
2022-09-05T09:20:26.751Z,22.70
2022-09-05T09:23:07.021Z,22.70
2022-09-05T09:26:16.854Z,22.80
2022-09-05T09:28:56.103Z,23.10
2022-09-05T09:31:43.490Z,23.00
2022-09-05T09:34:26.252Z,23.10
2022-09-05T09:36:59.546Z,23.10
2022-09-05T09:39:45.237Z,23.20
2022-09-05T09:42:34.668Z,23.20
2022-09-05T09:45:27.746Z,23.50
2022-09-05T09:48:24.241Z,23.70
2022-09-05T09:51:29.143Z,23.80
2022-09-05T09:54:06.231Z,24.00
2022-09-05T09:57:07.500Z,24.10
2022-09-05T09:59:56.535Z,24.20
2022-09-05T10:06:30.262Z,24.20
2022-09-05T10:10:44.656Z,24.30
2022-09-05T10:10:52.207Z,24.50
2022-09-05T10:11:54.671Z,24.50
2022-09-05T10:14:49.557Z,24.60
2022-09-05T10:17:36.971Z,24.50
2022-09-05T10:20:11.534Z,24.50
2022-09-05T10:22:46.024Z,24.70
2022-09-05T10:25:51.703Z,24.40
2022-09-05T10:29:36.891Z,24.50
2022-09-05T10:35:00.741Z,24.70
2022-09-05T10:35:27.509Z,24.50
2022-09-05T10:38:04.362Z,24.40
2022-09-05T10:41:20.371Z,24.40
2022-09-05T10:43:32.286Z,24.40
2022-09-05T10:46:50.875Z,24.60
2022-09-05T10:49:30.148Z,24.90
2022-09-05T10:52:18.780Z,25.20
2022-09-05T10:55:14.758Z,25.30
2022-09-05T10:57:45.802Z,25.20
2022-09-05T11:02:19.954Z,25.40
2022-09-05T11:03:33.499Z,25.50
2022-09-05T11:06:09.044Z,25.50
2022-09-05T11:08:49.950Z,25.50
2022-09-05T11:11:28.769Z,25.60
2022-09-05T11:14:04.978Z,25.60
2022-09-05T11:16:45.718Z,25.60
2022-09-05T11:19:28.714Z,25.60
2022-09-05T11:22:23.226Z,25.70
2022-09-05T11:24:56.875Z,25.90
2022-09-05T11:27:47.563Z,25.90
2022-09-05T11:30:29.019Z,26.10
2022-09-05T11:39:41.035Z,26.20
2022-09-05T11:39:52.873Z,26.30
2022-09-05T11:39:57.726Z,26.30
2022-09-05T11:43:01.354Z,26.00
2022-09-05T11:46:08.662Z,26.30
2022-09-05T11:48:53.621Z,26.50
2022-09-05T11:51:33.419Z,26.40
2022-09-05T11:54:19.666Z,26.40
2022-09-05T11:57:44.087Z,26.60
2022-09-05T12:00:32.673Z,26.60
2022-09-05T12:03:59.259Z,26.90
2022-09-05T12:06:49.550Z,27.00
2022-09-05T12:09:54.818Z,27.10
2022-09-05T12:13:01.363Z,26.80
2022-09-05T12:15:34.004Z,26.40
2022-09-05T12:18:24.224Z,26.50
2022-09-05T12:21:21.863Z,26.50
2022-09-05T12:25:16.075Z,26.70
2022-09-05T12:27:36.777Z,26.90
2022-09-05T12:29:51.209Z,26.70
2022-09-05T12:34:02.721Z,26.70
2022-09-05T12:39:38.086Z,26.70
2022-09-05T12:40:58.023Z,26.80
2022-09-05T12:41:44.183Z,26.90
2022-09-05T12:44:39.175Z,26.80
2022-09-05T12:46:56.408Z,26.90
2022-09-05T12:49:34.996Z,27.00
2022-09-05T12:52:33.860Z,27.10
2022-09-05T12:55:09.267Z,27.00
2022-09-05T13:00:24.259Z,26.90
2022-09-05T13:03:06.313Z,26.80
2022-09-05T13:03:29.802Z,26.90
2022-09-05T13:06:09.264Z,27.00
2022-09-05T13:08:49.072Z,27.10
2022-09-05T13:14:53.447Z,27.10
2022-09-05T13:14:56.090Z,27.30
2022-09-05T13:17:22.167Z,27.30
2022-09-05T13:19:52.015Z,27.20
2022-09-05T13:22:21.167Z,27.20
2022-09-05T13:24:58.063Z,27.10
2022-09-05T13:27:28.094Z,27.20
2022-09-05T13:36:01.304Z,27.20
2022-09-05T13:37:58.604Z,27.40
2022-09-05T13:38:14.436Z,27.30
2022-09-05T13:39:00.774Z,27.40
2022-09-05T13:41:35.256Z,27.70
2022-09-05T13:44:27.030Z,27.70
2022-09-05T13:47:30.654Z,27.50
2022-09-05T13:50:07.746Z,27.60
2022-09-05T13:52:39.696Z,27.70
2022-09-05T13:55:15.963Z,27.90
2022-09-05T13:57:58.179Z,27.60
2022-09-05T14:00:40.389Z,27.30
2022-09-05T14:03:39.247Z,27.30
2022-09-05T14:07:44.088Z,27.50
2022-09-05T14:10:08.444Z,27.80
2022-09-05T14:12:49.087Z,28.00
2022-09-05T14:15:35.143Z,27.80
2022-09-05T14:18:23.739Z,28.10
2022-09-05T14:21:17.791Z,28.10
2022-09-05T14:23:55.050Z,28.10
2022-09-05T14:26:33.795Z,28.00
2022-09-05T14:29:12.111Z,28.20
2022-09-05T14:37:35.266Z,28.20
2022-09-05T14:37:48.805Z,28.10
2022-09-05T14:38:24.547Z,27.80
2022-09-05T14:41:00.980Z,27.70
2022-09-05T14:43:32.154Z,27.50
2022-09-05T14:46:11.463Z,27.60
2022-09-05T14:48:54.115Z,27.70
2022-09-05T14:51:51.554Z,27.70
2022-09-05T15:02:46.250Z,27.30
2022-09-05T15:02:52.077Z,26.90
2022-09-05T15:03:12.430Z,26.70
2022-09-05T15:05:49.988Z,26.60
2022-09-05T15:09:53.618Z,26.70
2022-09-05T15:12:16.777Z,26.70
2022-09-05T15:14:04.405Z,26.70
2022-09-05T15:16:33.060Z,26.60
2022-09-05T15:19:00.552Z,26.60
2022-09-05T15:21:35.266Z,26.60
2022-09-05T15:24:21.336Z,26.80
2022-09-05T15:26:56.967Z,27.00
2022-09-05T15:29:26.065Z,27.20
2022-09-05T15:32:03.891Z,27.40
2022-09-05T15:34:38.546Z,27.60
2022-09-05T15:37:22.819Z,27.60
2022-09-05T15:40:07.623Z,27.60
2022-09-05T15:42:59.031Z,27.60
2022-09-05T15:45:36.447Z,27.40
2022-09-05T15:48:03.983Z,27.50
2022-09-05T15:50:31.267Z,27.60
2022-09-05T15:52:58.512Z,27.60
2022-09-05T15:55:26.316Z,27.70
2022-09-05T15:58:00.977Z,27.70
2022-09-05T16:00:41.437Z,27.70
2022-09-05T16:04:28.705Z,27.50
2022-09-05T16:10:28.350Z,27.50
2022-09-05T16:10:41.690Z,27.30
2022-09-05T16:12:16.909Z,27.10
2022-09-05T16:14:49.950Z,27.00
2022-09-05T16:23:18.432Z,27.00
2022-09-05T16:23:30.681Z,26.90
2022-09-05T16:23:40.598Z,27.00
2022-09-05T16:26:28.528Z,27.00
2022-09-05T16:29:02.393Z,27.10
2022-09-05T16:31:35.473Z,27.20
2022-09-05T16:34:08.477Z,27.30
2022-09-05T16:37:08.362Z,27.30
2022-09-05T16:39:38.875Z,27.40
2022-09-05T16:42:14.506Z,27.40
2022-09-05T16:44:54.851Z,27.40
2022-09-05T16:47:28.383Z,27.50
2022-09-05T16:50:16.817Z,27.60
2022-09-05T16:52:53.447Z,28.10
2022-09-05T16:55:35.931Z,28.90
2022-09-05T16:58:19.907Z,29.70
2022-09-05T17:00:57.367Z,30.30
2022-09-05T17:03:28.562Z,29.70
2022-09-05T17:06:26.618Z,29.30
2022-09-05T17:09:00.838Z,28.90
2022-09-05T17:11:51.010Z,28.40
2022-09-05T17:14:34.802Z,27.90
2022-09-05T17:17:20.379Z,27.40
2022-09-05T17:20:07.982Z,27.00
2022-09-05T17:28:29.972Z,26.50
2022-09-05T17:29:25.749Z,26.00
2022-09-05T17:29:45.824Z,25.60
2022-09-05T17:31:55.802Z,25.30
2022-09-05T17:34:41.828Z,25.00
2022-09-05T17:37:33.651Z,24.90
2022-09-05T17:40:30.039Z,24.60
2022-09-05T17:43:13.110Z,24.30
2022-09-05T17:46:14.315Z,24.20
2022-09-05T17:48:50.820Z,24.00
2022-09-05T17:51:50.849Z,23.80
2022-09-05T17:54:33.516Z,23.70
2022-09-05T17:57:26.824Z,23.60
2022-09-05T17:59:54.950Z,23.50
2022-09-05T18:02:22.211Z,23.40
2022-09-05T18:04:50.714Z,23.20
2022-09-05T18:07:28.496Z,23.10
2022-09-05T18:10:15.289Z,22.90
2022-09-05T18:13:13.025Z,22.80
2022-09-05T18:15:38.599Z,22.70
2022-09-05T18:18:08.655Z,22.70
2022-09-05T18:21:21.593Z,22.60
2022-09-05T18:23:54.354Z,22.50
2022-09-05T18:26:23.866Z,22.40
2022-09-05T18:29:03.815Z,22.30
2022-09-05T18:31:40.791Z,22.20
2022-09-05T18:34:15.168Z,22.10
2022-09-05T18:36:53.122Z,22.10
2022-09-05T18:39:38.641Z,22.00
2022-09-05T18:42:33.313Z,21.80
2022-09-05T18:45:14.521Z,21.70
2022-09-05T18:47:58.803Z,21.60
2022-09-05T18:50:32.360Z,21.50
2022-09-05T18:53:10.629Z,21.40
2022-09-05T18:56:20.225Z,21.40
2022-09-05T18:59:09.612Z,21.40
2022-09-05T19:02:41.094Z,21.30
2022-09-05T19:05:14.336Z,21.20
2022-09-05T19:07:47.912Z,20.90
2022-09-05T19:10:34.510Z,20.80
2022-09-05T19:13:23.977Z,20.70
2022-09-05T19:16:33.108Z,20.60
2022-09-05T19:19:18.331Z,20.50
2022-09-05T19:22:39.321Z,20.40
2022-09-05T19:24:46.189Z,20.40
2022-09-05T19:35:15.484Z,20.30
2022-09-05T19:36:54.140Z,20.10
2022-09-05T19:36:58.066Z,20.20
2022-09-05T19:37:04.965Z,20.10
2022-09-05T19:38:38.306Z,20.00
2022-09-05T19:47:34.075Z,20.00
2022-09-05T19:47:34.928Z,20.00
2022-09-05T19:47:39.630Z,20.00
2022-09-05T19:50:01.530Z,20.00
2022-09-05T19:52:28.883Z,19.90
2022-09-05T19:54:58.567Z,19.80
2022-09-05T19:57:25.863Z,19.80
2022-09-05T19:59:54.805Z,19.70
2022-09-05T20:02:35.262Z,19.70
2022-09-05T20:05:04.262Z,19.50
2022-09-05T20:07:32.054Z,19.40
2022-09-05T20:10:01.576Z,19.40
2022-09-05T20:12:36.592Z,19.30
2022-09-05T20:15:25.197Z,19.30
2022-09-05T20:18:20.084Z,19.10
2022-09-05T20:20:54.227Z,19.10
2022-09-05T20:23:24.072Z,19.10
2022-09-05T20:25:51.722Z,19.10
2022-09-05T20:28:21.834Z,19.10
2022-09-05T20:30:54.635Z,19.10
2022-09-05T20:33:27.467Z,19.00
2022-09-05T20:38:26.359Z,19.00
2022-09-05T20:43:17.746Z,18.90
2022-09-05T20:43:20.495Z,19.00
2022-09-05T20:44:50.380Z,18.80
2022-09-05T20:50:47.014Z,18.80
2022-09-05T20:54:06.958Z,18.70
2022-09-05T20:54:20.344Z,18.80
2022-09-05T20:56:10.929Z,18.80
2022-09-05T20:58:38.507Z,18.70
2022-09-05T21:01:21.705Z,18.70
2022-09-05T21:04:03.612Z,18.60
2022-09-05T21:06:40.437Z,18.70
2022-09-05T21:09:24.403Z,18.70
2022-09-05T21:11:54.724Z,18.50
2022-09-05T21:14:22.960Z,18.50
2022-09-05T21:17:00.741Z,18.50
2022-09-05T21:19:29.875Z,18.40
2022-09-05T21:22:09.123Z,18.40
2022-09-05T21:24:36.571Z,18.40
2022-09-05T21:27:16.691Z,18.40
2022-09-05T21:29:44.172Z,18.40
2022-09-05T21:32:14.003Z,18.30
2022-09-05T21:34:46.303Z,18.20
2022-09-05T21:37:14.941Z,18.10
2022-09-05T21:39:57.187Z,18.00
2022-09-05T21:46:18.984Z,17.90
2022-09-05T21:47:42.245Z,18.00
2022-09-05T21:48:07.942Z,18.10
2022-09-05T21:51:03.683Z,18.00
2022-09-05T21:56:24.198Z,18.00
2022-09-05T21:59:26.993Z,18.00
2022-09-05T21:59:37.174Z,17.80
2022-09-05T22:02:08.241Z,17.80
2022-09-05T22:04:41.304Z,17.80
2022-09-05T22:07:21.669Z,17.80
2022-09-05T22:09:59.485Z,17.80
2022-09-05T22:12:31.397Z,17.70
2022-09-05T22:15:02.512Z,17.70
2022-09-05T22:17:43.370Z,17.70
2022-09-05T22:20:14.532Z,17.60
2022-09-05T22:22:41.852Z,17.70
2022-09-05T22:25:19.531Z,17.70
2022-09-05T22:28:10.485Z,17.80
2022-09-05T22:30:38.640Z,17.80
2022-09-05T22:33:06.343Z,17.80
2022-09-05T22:35:34.451Z,17.90
2022-09-05T22:38:16.480Z,17.90
2022-09-05T22:40:47.877Z,17.80
2022-09-05T22:43:16.640Z,17.80
2022-09-05T22:45:43.892Z,17.80
2022-09-05T22:48:14.622Z,17.70
2022-09-05T22:50:42.419Z,17.80
2022-09-05T22:53:10.380Z,17.70
2022-09-05T22:55:40.546Z,17.70
2022-09-05T22:58:08.897Z,17.60
2022-09-05T23:00:36.305Z,17.50
2022-09-05T23:03:06.161Z,17.50
2022-09-05T23:05:33.609Z,17.40
2022-09-05T23:08:01.028Z,17.40
2022-09-05T23:10:28.493Z,17.30
2022-09-05T23:12:55.926Z,17.30
2022-09-05T23:15:23.247Z,17.30
2022-09-05T23:18:00.251Z,17.30
2022-09-05T23:20:29.319Z,17.30
2022-09-05T23:22:56.790Z,17.20
2022-09-05T23:25:24.171Z,17.20
2022-09-05T23:27:51.448Z,17.20
2022-09-05T23:30:18.818Z,17.20
2022-09-05T23:32:46.839Z,17.20
2022-09-05T23:35:15.011Z,17.20
2022-09-05T23:37:46.098Z,17.20
2022-09-05T23:40:17.965Z,17.10
2022-09-05T23:42:58.819Z,17.10
2022-09-05T23:45:26.293Z,17.00
2022-09-05T23:47:53.576Z,16.90
2022-09-05T23:50:20.911Z,16.90
2022-09-05T23:52:48.244Z,16.80
2022-09-05T23:55:17.462Z,16.80
2022-09-05T23:57:44.784Z,16.80
